Flight Track Log - Related Links

Times and Time Zones

All times are in EDT time to prevent confusion due to time zone crossing. See the AAY824 flight status page for this flight to view local times or setup timezone preferences in your user account.

Time Position Orientation Groundspeed Altitude Reporting Facility
EDT Latitude Longitude Course Direction KTS MPH feet Rate Location/Type
Mon 08:05:26 AM 27.9000 -82.6833 180° South 159 183 400  Level Tampa TRACON
Mon 08:05:56 AM 27.8833 -82.6833 180° South 163 188 1,600 971 Climbing Tampa TRACON
Mon 08:07:11 AM 27.8167 -82.7167 204° Southwest 231 266 2,100 1,000 Climbing Tampa TRACON
Mon 08:08:02 AM 27.8500 -82.7667 307° West 248 285 3,700 2,258 Climbing Tampa TRACON
Mon 08:10:09 AM 27.9997 -82.7844 354° North 273 314 8,800 2,310 Climbing Jacksonville Center
Mon 08:11:09 AM 28.0831 -82.7892 357° North 284 327 10,900 1,500 Climbing Jacksonville Center
Mon 08:12:09 AM 28.1769 -82.7961 356° North 311 358 11,800 1,500 Climbing Jacksonville Center
Mon 08:13:09 AM 28.2875 -82.8100 354° North 356 410 13,900 2,150 Climbing Jacksonville Center
Mon 08:14:09 AM 28.4003 -82.8453 345° North 394 453 16,100 2,050 Climbing Jacksonville Center
Mon 08:15:09 AM 28.5108 -82.8808 344° North 408 470 18,000 1,700 Climbing Jacksonville Center
Mon 08:16:09 AM 28.6300 -82.9186 344° North 424 488 19,500 1,750 Climbing Jacksonville Center
Mon 08:17:09 AM 28.7572 -82.9611 344° North 430 495 21,500 1,650 Climbing Jacksonville Center
Mon 08:18:09 AM 28.8803 -83.0017 344° North 440 506 22,800 1,350 Climbing Jacksonville Center
Mon 08:19:09 AM 29.0056 -83.0422 344° North 452 520 24,200 1,450 Climbing Jacksonville Center
Mon 08:20:09 AM 29.1264 -83.0922 340° North 457 526 25,700 1,500 Climbing Jacksonville Center
Mon 08:21:09 AM 29.2453 -83.1614 333° Northwest 464 534 27,200 1,650 Climbing Jacksonville Center
Mon 08:22:09 AM 29.3558 -83.2308 331° Northwest 459 528 29,000 1,500 Climbing Jacksonville Center
Mon 08:23:09 AM 29.4664 -83.3006 331° Northwest 454 522 30,200 1,300 Climbing Jacksonville Center
Mon 08:24:09 AM 29.5747 -83.3678 332° Northwest 448 516 31,600 850 Climbing Jacksonville Center
Mon 08:25:09 AM 29.6828 -83.4353 332° Northwest 448 516 31,900 150 Climbing Jacksonville Center
Mon 08:26:09 AM 29.7892 -83.5006 332° Northwest 441 507 31,900  Level Jacksonville Center
Mon 08:27:09 AM 29.8972 -83.5681 332° Northwest 441 507 31,900  Level Jacksonville Center
Mon 08:28:09 AM 29.9931 -83.6289 331° Northwest 441 507 31,900  Level Jacksonville Center
Mon 08:29:09 AM 30.1011 -83.6944 332° Northwest 441 507 31,900  Level Jacksonville Center
Mon 08:30:09 AM 30.2092 -83.7628 331° Northwest 441 507 31,900  Level Jacksonville Center
Mon 08:31:09 AM 30.3153 -83.8286 332° Northwest 436 502 31,900  Level Jacksonville Center
Mon 08:32:09 AM 30.4233 -83.8922 333° Northwest 436 502 31,900  Level Jacksonville Center
Mon 08:33:09 AM 30.5314 -83.9608 331° Northwest 436 502 31,900 50 Level Jacksonville Center
Mon 08:34:09 AM 30.6331 -84.0297 330° Northwest 436 502 32,000 50 Climbing Jacksonville Center
Mon 08:35:09 AM 30.7411 -84.0939 333° Northwest 436 502 32,000  Level Jacksonville Center
Mon 08:36:09 AM 30.8489 -84.1631 331° Northwest 436 502 32,000  Level Jacksonville Center
Mon 08:37:09 AM 30.9569 -84.2322 331° Northwest 436 502 32,000  Level Jacksonville Center
Mon 08:38:40 AM 31.1306 -84.3419 332° Northwest 440 506 32,000  Level Atlanta Center
Mon 08:39:40 AM 31.2389 -84.4081 332° Northwest 440 506 32,000  Level Atlanta Center
Mon 08:40:40 AM 31.3347 -84.4692 331° Northwest 440 506 32,000  Level Atlanta Center
Mon 08:41:40 AM 31.4431 -84.5378 332° Northwest 440 506 32,000  Level Atlanta Center
Mon 08:42:40 AM 31.5533 -84.6067 332° Northwest 440 506 32,000  Level Atlanta Center
Mon 08:43:40 AM 31.6614 -84.6756 332° Northwest 440 506 32,000  Level Atlanta Center
Mon 08:44:40 AM 31.7697 -84.7472 331° Northwest 440 506 32,000  Level Atlanta Center
Mon 08:45:40 AM 31.8800 -84.8117 334° Northwest 440 506 32,000  Level Atlanta Center
Mon 08:46:40 AM 31.9986 -84.8544 343° North 435 501 32,000  Level Atlanta Center
Mon 08:47:40 AM 32.1172 -84.8922 345° North 440 506 32,000  Level Atlanta Center
Mon 08:48:40 AM 32.2358 -84.9328 344° North 440 506 32,000  Level Atlanta Center
Mon 08:49:40 AM 32.3567 -84.9708 345° North 435 501 32,000  Level Atlanta Center
Mon 08:50:40 AM 32.4714 -85.0089 344° North 440 506 32,000  Level Atlanta Center
Mon 08:51:40 AM 32.5919 -85.0497 344° North 439 505 32,000  Level Atlanta Center
Mon 08:52:40 AM 32.7064 -85.0881 344° North 434 499 32,000  Level Atlanta Center
Mon 08:53:40 AM 32.8292 -85.1289 344° North 434 499 32,000  Level Atlanta Center
Mon 08:54:40 AM 32.9458 -85.1700 344° North 440 506 32,000  Level Atlanta Center
Mon 08:55:40 AM 33.0769 -85.2189 343° North 440 506 32,000  Level Atlanta Center
Mon 08:56:40 AM 33.1933 -85.2725 339° North 440 506 32,000  Level Atlanta Center
Mon 08:57:40 AM 33.3075 -85.3239 339° North 440 506 32,000  Level Atlanta Center
Mon 08:58:40 AM 33.4217 -85.3753 339° North 445 512 32,000  Level Atlanta Center
Mon 08:59:40 AM 33.5381 -85.4319 338° Northwest 445 512 32,000  Level Atlanta Center
Mon 09:00:40 AM 33.6542 -85.4839 340° North 445 512 32,000  Level Atlanta Center
Mon 09:01:40 AM 33.7664 -85.5356 339° North 445 512 32,000  Level Atlanta Center
Mon 09:02:41 AM 33.8722 -85.5875 338° Northwest 440 506 32,000  Level Atlanta Center
Mon 09:03:40 AM 33.9842 -85.6447 337° Northwest 445 512 32,000  Level Atlanta Center
Mon 09:04:40 AM 34.1025 -85.6994 339° North 445 512 32,000  Level Atlanta Center
Mon 09:05:40 AM 34.2164 -85.7494 340° North 445 512 32,000  Level Atlanta Center
Mon 09:06:40 AM 34.3325 -85.8047 339° North 445 512 32,000  Level Atlanta Center
Mon 09:07:40 AM 34.4508 -85.8600 339° North 450 518 32,000  Level Atlanta Center
Mon 09:08:40 AM 34.5647 -85.9156 338° Northwest 445 512 32,000  Level Atlanta Center
Mon 09:09:15 AM 34.6303 -85.9478 338° Northwest 450 518 32,000  Level Memphis Center
Mon 09:10:17 AM 34.7458 -86.0033 338° Northwest 450 518 32,000  Level Memphis Center
Mon 09:11:19 AM 34.8706 -86.0647 338° Northwest 451 519 32,000  Level Memphis Center
Mon 09:12:21 AM 34.9872 -86.1217 338° Northwest 451 519 32,000  Level Memphis Center
Mon 09:13:23 AM 35.1278 -86.1922 338° Northwest 451 519 32,000  Level Memphis Center
Mon 09:14:25 AM 35.2442 -86.2464 339° North 450 518 32,000  Level Memphis Center
Mon 09:15:27 AM 35.3622 -86.3053 338° Northwest 450 518 32,000  Level Memphis Center
Mon 09:16:29 AM 35.4786 -86.3639 338° Northwest 450 518 32,000  Level Memphis Center
Mon 09:17:31 AM 35.5967 -86.4219 338° Northwest 451 519 32,000  Level Memphis Center
Mon 09:18:33 AM 35.7147 -86.4789 339° North 451 519 32,000  Level Memphis Center
Mon 09:19:35 AM 35.8519 -86.5464 338° Northwest 451 519 32,000  Level Memphis Center
Mon 09:20:38 AM 35.9708 -86.6047 338° Northwest 452 520 32,000  Level Memphis Center
Mon 09:21:40 AM 36.0889 -86.6622 339° North 452 520 32,000  Level Memphis Center
Mon 09:22:42 AM 36.1878 -86.7533 323° Northwest 447 514 32,000  Level Memphis Center
Mon 09:23:44 AM 36.2706 -86.8628 313° West 442 509 32,000  Level Memphis Center
Mon 09:24:46 AM 36.3583 -86.9767 314° West 451 519 32,000  Level Memphis Center
Mon 09:25:48 AM 36.4528 -87.1000 314° West 446 513 32,000  Level Memphis Center
Mon 09:26:50 AM 36.5381 -87.2142 313° West 446 513 32,000  Level Memphis Center
Mon 09:27:52 AM 36.6231 -87.3275 313° West 446 513 32,000  Level Memphis Center
Mon 09:28:54 AM 36.7078 -87.4411 313° West 445 512 32,000  Level Memphis Center
Mon 09:29:56 AM 36.7925 -87.5547 313° West 445 512 32,000  Level Memphis Center
Mon 09:30:58 AM 36.8903 -87.6883 312° West 445 512 32,000  Level Memphis Center
Mon 09:32:00 AM 36.9750 -87.8014 313° West 445 512 32,000  Level Memphis Center
Mon 09:33:02 AM 37.0589 -87.9158 313° West 442 509 32,000  Level Memphis Center
Mon 09:34:05 AM 37.1422 -88.0297 313° West 442 509 32,000  Level Memphis Center
Mon 09:35:07 AM 37.2264 -88.1456 312° West 442 509 32,000  Level Memphis Center
Mon 09:36:09 AM 37.3081 -88.2583 312° West 441 507 32,000  Level Memphis Center
Mon 09:37:11 AM 37.3883 -88.3711 312° West 437 503 32,000  Level Memphis Center
Mon 09:38:13 AM 37.4861 -88.5078 312° West 437 503 32,000  Level Memphis Center
Mon 09:39:15 AM 37.5683 -88.6208 313° West 437 503 32,000  Level Memphis Center
Mon 09:40:17 AM 37.6497 -88.7331 313° West 437 503 32,000  Level Memphis Center
Mon 09:41:19 AM 37.7306 -88.8489 311° West 437 503 32,000  Level Memphis Center
Mon 09:42:21 AM 37.8125 -88.9625 312° West 437 503 32,000  Level Memphis Center
Mon 09:43:23 AM 37.8933 -89.0772 312° West 438 504 32,000  Level Memphis Center
Mon 09:44:25 AM 37.9897 -89.2139 312° West 437 503 32,000  Level Memphis Center
Mon 09:45:51 AM 38.1033 -89.3767 312° West 437 503 32,000  Level Kansas City Center
Mon 09:46:52 AM 38.1831 -89.4914 311° West 436 502 32,000  Level Kansas City Center
Mon 09:47:56 AM 38.2692 -89.6144 312° West 434 499 32,000  Level Kansas City Center
Mon 09:48:57 AM 38.3417 -89.7208 311° West 433 498 32,000  Level Kansas City Center
Mon 09:49:59 AM 38.4214 -89.8369 311° West 433 498 32,000  Level Kansas City Center
Mon 09:51:02 AM 38.5019 -89.9511 312° West 434 499 32,000  Level Kansas City Center
Mon 09:52:03 AM 38.5875 -90.0750 311° West 439 505 32,000  Level Kansas City Center
Mon 09:53:04 AM 38.6728 -90.2025 311° West 433 498 32,000  Level Kansas City Center
Mon 09:54:07 AM 38.7494 -90.3156 311° West 421 484 32,000  Level Kansas City Center
Mon 09:55:10 AM 38.8308 -90.4411 310° West 434 499 32,000  Level Kansas City Center
Mon 09:56:12 AM 38.9131 -90.5531 313° West 433 498 32,000  Level Kansas City Center
Mon 09:57:12 AM 39.0067 -90.6586 319° Northwest 432 497 32,000  Level Kansas City Center
Mon 09:58:13 AM 39.0944 -90.7583 319° Northwest 425 489 32,000  Level Kansas City Center
Mon 09:59:16 AM 39.1847 -90.8603 319° Northwest 427 491 32,000  Level Kansas City Center
Mon 10:00:19 AM 39.2861 -90.9750 319° Northwest 428 493 32,000  Level Kansas City Center
Mon 10:01:20 AM 39.3856 -91.0889 319° Northwest 434 499 32,000  Level Kansas City Center
Mon 10:02:21 AM 39.4756 -91.1933 318° Northwest 435 501 32,000  Level Kansas City Center
Mon 10:03:25 AM 39.5619 -91.3003 316° Northwest 436 502 32,000  Level Kansas City Center
Mon 10:04:27 AM 39.6183 -91.4361 298° West 432 497 32,000  Level Kansas City Center
Mon 10:05:27 AM 39.6744 -91.5736 298° West 433 498 32,000  Level Kansas City Center
Mon 10:06:31 AM 39.7306 -91.7128 298° West 434 499 32,000  Level Kansas City Center
Mon 10:07:33 AM 39.7969 -91.8797 297° West 434 499 32,000  Level Kansas City Center
Mon 10:08:34 AM 39.8572 -92.0164 300° West 435 501 32,000  Level Kansas City Center
Mon 10:09:38 AM 39.9219 -92.1469 303° West 435 501 32,000  Level Kansas City Center
Mon 10:10:38 AM 39.9872 -92.2758 303° West 434 499 32,000  Level Kansas City Center
Mon 10:11:39 AM 40.0511 -92.4056 303° West 429 494 32,000  Level Kansas City Center
Mon 10:12:43 AM 40.1281 -92.5303 309° West 441 507 32,000 -476 Level Kansas City Center
Mon 10:13:45 AM 40.2475 -92.6431 324° Northwest 439 505 31,000 -1,672 Descending Kansas City Center
Mon 10:14:45 AM 40.3503 -92.7300 327° Northwest 439 505 28,600 -2,516 Descending Kansas City Center
Mon 10:15:49 AM 40.4553 -92.8092 330° Northwest 440 506 25,800 -2,448 Descending Kansas City Center
Mon 10:16:50 AM 40.5578 -92.8903 329° Northwest 435 501 23,500 -2,304 Descending Kansas City Center
Mon 10:17:54 AM 40.6578 -92.9694 329° Northwest 419 482 21,000 -2,565 Descending Kansas City Center
Mon 10:19:08 AM 40.7925 -93.0739 330° Northwest 407 468 17,600 -2,471 Descending Chicago Center
Mon 10:20:10 AM 40.8856 -93.1461 330° Northwest 396 456 15,400 -2,226 Descending Chicago Center
Mon 10:21:12 AM 40.9772 -93.2139 331° Northwest 385 443 13,000 -2,323 Descending Chicago Center
Mon 10:22:14 AM 41.0672 -93.2722 334° Northwest 370 426 10,600 -1,610 Descending Chicago Center
Mon 10:23:15 AM 41.1525 -93.3389 330° Northwest 295 339 9,700 -923 Descending Minneapolis Center
Mon 10:23:32 AM 41.1644 -93.3667 300° West 293 337 9,400 -1,000 Descending Minneapolis Center
Mon 10:24:15 AM 41.2117 -93.4008 331° Northwest 261 300 8,700 -968 Descending Minneapolis Center
Mon 10:24:34 AM 41.2233 -93.4281 300° West 273 314 8,400 -984 Descending Minneapolis Center
Mon 10:25:16 AM 41.2711 -93.4628 331° Northwest 269 310 7,700 -984 Descending Minneapolis Center
Mon 10:25:35 AM 41.2892 -93.4950 307° West 274 315 7,400 -1,000 Descending Minneapolis Center
Mon 10:26:10 AM 41.3303 -93.5194 336° Northwest 286 329 6,800 -1,065 Descending Minneapolis Center
Mon 10:26:37 AM 41.3522 -93.5561 309° West 281 323 6,300 -1,279 Descending Minneapolis Center
Mon 10:27:11 AM 41.3914 -93.5758 339° North 265 305 5,500 -1,574 Descending Minneapolis Center
Mon 10:27:38 AM 41.4136 -93.6061 314° West 264 304 4,700 -1,574 Descending Minneapolis Center
Mon 10:28:12 AM 41.4506 -93.6300 334° Northwest 253 291 3,900 -1,355 Descending Minneapolis Center
Mon 10:28:40 AM 41.4681 -93.6633 305° West 253 291 3,300 -1,000 Descending Minneapolis Center
Mon 10:29:12 AM 41.4972 -93.6814 335° Northwest 208 239 2,900 -885 Descending Minneapolis Center
Mon 10:29:41 AM 41.5133 -93.7158 302° West 202 232 2,400 -787 Descending Minneapolis Center
Mon 10:30:13 AM 41.5353 -93.7278 338° Northwest 170 196 2,100 -492 Descending Minneapolis Center
Mon 10:30:42 AM 41.5544 -93.7408 333° Northwest 179 206 1,900 -295 Descending Minneapolis Center
Mon 10:31:14 AM 41.5747 -93.7103 48° Northeast 158 182 1,800 -484 Descending Minneapolis Center
Mon 10:31:44 AM 41.5608 -93.6961 143° Southeast 150 173 1,400 -593 Descending Minneapolis Center
Mon 10:32:45 AM 41.5411 -93.6681 133° Southeast 128 147 900 -492 Descending Minneapolis Center

Login

Don't have an account? Register now (free) for customized features, flight alerts, and more!